Bishop, Georgia
Current Conditions -  °F | °C
As of 4:51 PM on Thursday 23 Oct 2014 (Local Time) from KAHN Reporting Station
Clear Clear  
Wind Chill: 72°   Ceiling: Unl
Heat Index: 72°   Visibility: 10mi
Dew Point: 38°   Wind: 0mph
Humidity: 29%   Direction: NA
Pressure: 30.01"   Gusts: NA
Location:  33.82°N, 83.44°W
Report Text: KAHN 232051Z 00000KT 10SM CLR 22/03 A3001 RMK AO2 SLP161 T02220033 56015
Loading
Personal Weather Stations






























Interactive Weather Map
Tropical Storm Tracking
New forecast layout! Learn more

10-Day Weather Forecast

Advertisements
Track Severe Weather on mobile